createdAt,value
2022-12-19T00:01:09.157Z,7.63
2022-12-19T00:04:15.625Z,8.20
2022-12-19T00:07:20.628Z,8.23
2022-12-19T00:10:24.374Z,7.77
2022-12-19T00:13:30.069Z,8.50
2022-12-19T00:16:37.316Z,8.13
2022-12-19T00:19:41.229Z,8.83
2022-12-19T00:22:46.217Z,8.47
2022-12-19T00:25:49.872Z,8.10
2022-12-19T00:28:57.063Z,8.97
2022-12-19T00:32:00.787Z,8.60
2022-12-19T00:35:04.502Z,8.33
2022-12-19T00:38:09.670Z,8.73
2022-12-19T00:41:15.586Z,8.30
2022-12-19T00:44:19.156Z,9.03
2022-12-19T00:47:22.740Z,8.17
2022-12-19T00:50:26.399Z,9.57
2022-12-19T00:53:31.762Z,9.33
2022-12-19T00:56:38.364Z,8.70
2022-12-19T00:59:43.518Z,8.60
2022-12-19T01:02:47.465Z,9.33
2022-12-19T01:05:53.094Z,8.77
2022-12-19T01:08:58.693Z,10.37
2022-12-19T01:12:23.946Z,9.10
2022-12-19T01:15:28.510Z,10.47
2022-12-19T01:18:32.184Z,9.77
2022-12-19T01:21:35.848Z,11.13
2022-12-19T01:24:40.962Z,11.00
2022-12-19T01:27:44.612Z,11.07
2022-12-19T01:30:48.965Z,11.17
2022-12-19T01:33:52.753Z,11.50
2022-12-19T01:36:58.142Z,10.83
2022-12-19T01:40:03.183Z,11.17
2022-12-19T01:43:07.791Z,10.33
2022-12-19T01:46:16.967Z,10.17
2022-12-19T01:49:30.360Z,10.83
2022-12-19T01:52:34.863Z,10.40
2022-12-19T01:55:42.778Z,11.47
2022-12-19T01:58:47.787Z,12.23
2022-12-19T02:02:01.635Z,12.40
2022-12-19T02:05:06.588Z,11.83
2022-12-19T02:08:10.906Z,12.17
2022-12-19T02:11:16.153Z,11.63
2022-12-19T02:14:20.080Z,12.10
2022-12-19T02:17:42.219Z,12.20
2022-12-19T02:21:16.681Z,12.20
2022-12-19T02:25:09.959Z,11.97
2022-12-19T02:29:08.112Z,13.90
2022-12-19T02:32:21.306Z,11.60
2022-12-19T02:35:37.346Z,13.27
2022-12-19T02:38:51.884Z,13.27
2022-12-19T02:41:59.522Z,13.57
2022-12-19T02:45:07.761Z,12.07
2022-12-19T02:48:18.890Z,13.40
2022-12-19T02:51:23.097Z,10.93
2022-12-19T02:54:27.163Z,14.23
2022-12-19T02:57:39.527Z,13.33
2022-12-19T03:00:56.164Z,13.93
2022-12-19T03:04:16.580Z,13.50
2022-12-19T03:07:34.794Z,12.43
2022-12-19T03:10:45.677Z,13.73
2022-12-19T03:13:58.116Z,13.40
2022-12-19T03:17:07.124Z,14.90
2022-12-19T03:20:27.259Z,13.60
2022-12-19T03:23:32.599Z,14.90
2022-12-19T03:26:45.036Z,15.37
2022-12-19T03:29:56.156Z,14.73
2022-12-19T03:33:00.787Z,14.63
2022-12-19T03:36:12.414Z,14.43
2022-12-19T03:39:19.310Z,13.23
2022-12-19T03:42:45.973Z,15.67
2022-12-19T03:45:58.343Z,15.33
2022-12-19T03:49:02.120Z,16.40
2022-12-19T03:52:23.947Z,16.10
2022-12-19T03:55:38.131Z,14.90
2022-12-19T03:58:50.484Z,14.37
2022-12-19T04:01:56.375Z,16.70
2022-12-19T04:05:10.208Z,15.43
2022-12-19T04:08:16.741Z,15.27
2022-12-19T04:11:22.377Z,15.77
2022-12-19T04:14:32.115Z,16.83
2022-12-19T04:17:42.202Z,15.53
2022-12-19T04:20:56.641Z,17.37
2022-12-19T04:24:10.701Z,13.13
2022-12-19T04:27:15.696Z,15.63
2022-12-19T04:30:20.855Z,15.10
2022-12-19T04:33:24.519Z,15.53
2022-12-19T04:36:28.482Z,16.67
2022-12-19T04:39:34.027Z,16.33
2022-12-19T04:42:38.050Z,17.57
2022-12-19T04:45:43.158Z,16.83
2022-12-19T04:48:46.851Z,17.20
2022-12-19T04:51:50.734Z,17.30
2022-12-19T04:54:55.831Z,15.50
2022-12-19T04:58:06.833Z,16.47
2022-12-19T05:01:11.118Z,17.33
2022-12-19T05:04:14.800Z,16.47
2022-12-19T05:07:21.505Z,16.43
2022-12-19T05:10:26.682Z,16.60
2022-12-19T05:13:30.619Z,18.37
2022-12-19T05:16:34.466Z,16.00
2022-12-19T05:19:38.150Z,16.93
2022-12-19T05:22:41.858Z,17.53
2022-12-19T05:25:47.186Z,17.53
2022-12-19T05:29:00.985Z,16.67
2022-12-19T05:32:04.652Z,16.90
2022-12-19T05:35:09.110Z,16.47
2022-12-19T05:38:12.856Z,18.23
2022-12-19T05:41:21.057Z,18.37
2022-12-19T05:44:24.772Z,18.90
2022-12-19T05:47:28.784Z,19.13
2022-12-19T05:50:32.588Z,20.17
2022-12-19T05:53:37.844Z,21.50
2022-12-19T05:56:43.936Z,21.67
2022-12-19T05:59:47.593Z,18.73
2022-12-19T06:02:51.301Z,25.80
2022-12-19T06:05:55.073Z,29.80
2022-12-19T06:09:00.647Z,25.50
2022-12-19T06:12:06.215Z,26.50
2022-12-19T06:15:11.427Z,20.20
2022-12-19T06:18:14.945Z,20.67
2022-12-19T06:21:21.861Z,20.63
2022-12-19T06:24:26.818Z,20.53
2022-12-19T06:27:31.793Z,18.53
2022-12-19T06:30:35.523Z,19.07
2022-12-19T06:33:39.235Z,18.30
2022-12-19T06:36:43.159Z,25.73
2022-12-19T06:39:47.371Z,33.03
2022-12-19T06:42:51.670Z,21.70
2022-12-19T06:45:55.408Z,21.33
2022-12-19T06:48:59.323Z,20.07
2022-12-19T06:52:09.014Z,19.50
2022-12-19T06:55:12.968Z,20.90
2022-12-19T06:58:22.724Z,18.73
2022-12-19T07:01:50.274Z,19.20
2022-12-19T07:05:03.023Z,24.60
2022-12-19T07:08:07.469Z,27.37
2022-12-19T07:11:11.917Z,31.70
2022-12-19T07:14:16.880Z,24.47
2022-12-19T07:17:21.854Z,22.67
2022-12-19T07:20:25.537Z,19.53
2022-12-19T07:23:30.545Z,19.10
2022-12-19T07:26:34.652Z,19.63
2022-12-19T07:29:40.098Z,18.10
2022-12-19T07:32:43.732Z,18.70
2022-12-19T07:35:47.335Z,19.67
2022-12-19T07:38:51.052Z,20.10
2022-12-19T07:41:54.791Z,22.07
2022-12-19T07:44:59.764Z,19.97
2022-12-19T07:48:04.715Z,18.57
2022-12-19T07:51:08.660Z,20.57
2022-12-19T07:54:12.462Z,19.53
2022-12-19T07:57:16.099Z,19.50
2022-12-19T08:00:22.038Z,16.70
2022-12-19T08:03:26.018Z,20.27
2022-12-19T08:06:29.818Z,20.17
2022-12-19T08:09:34.134Z,19.90
2022-12-19T08:12:37.727Z,20.13
2022-12-19T08:15:42.741Z,20.97
2022-12-19T08:18:48.006Z,21.00
2022-12-19T08:21:51.802Z,18.97
2022-12-19T08:24:55.448Z,21.27
2022-12-19T08:27:59.076Z,21.63
2022-12-19T08:31:09.193Z,20.47
2022-12-19T08:34:13.163Z,20.77
2022-12-19T08:37:17.070Z,18.90
2022-12-19T08:40:22.038Z,22.57
2022-12-19T08:43:27.631Z,18.70
2022-12-19T08:46:33.218Z,21.27
2022-12-19T08:49:36.994Z,22.07
2022-12-19T08:52:40.724Z,22.40
2022-12-19T08:55:44.593Z,23.33
2022-12-19T08:58:48.703Z,22.47
2022-12-19T09:01:53.829Z,20.93
2022-12-19T09:05:58.655Z,23.00
2022-12-19T09:08:21.131Z,21.13
2022-12-19T09:11:26.141Z,24.10
2022-12-19T09:14:34.287Z,23.40
2022-12-19T09:17:39.473Z,24.77
2022-12-19T09:20:43.329Z,23.43
2022-12-19T09:23:50.769Z,21.57
2022-12-19T09:26:54.387Z,19.83
2022-12-19T09:29:57.962Z,22.50
2022-12-19T09:33:03.051Z,22.40
2022-12-19T09:36:09.926Z,24.43
2022-12-19T09:39:14.025Z,22.63
2022-12-19T09:43:01.679Z,23.70
2022-12-19T09:46:17.781Z,24.60
2022-12-19T09:49:26.386Z,23.03
2022-12-19T09:52:37.139Z,24.33
2022-12-19T09:55:43.975Z,20.90
2022-12-19T09:58:54.917Z,22.53
2022-12-19T10:02:22.123Z,22.80
2022-12-19T10:06:53.229Z,22.70
2022-12-19T10:10:52.871Z,22.80
2022-12-19T10:13:12.898Z,22.63
2022-12-19T10:16:28.265Z,23.27
2022-12-19T10:19:45.774Z,22.40
2022-12-19T10:23:29.160Z,22.50
2022-12-19T10:26:46.394Z,20.40
2022-12-19T10:30:04.872Z,22.83
2022-12-19T10:33:22.766Z,21.37
2022-12-19T10:36:56.013Z,23.17
2022-12-19T10:40:14.664Z,20.97
2022-12-19T10:43:47.784Z,22.53
2022-12-19T10:46:53.256Z,20.57
2022-12-19T10:49:56.957Z,20.17
2022-12-19T10:53:11.481Z,20.37
2022-12-19T10:56:29.269Z,20.47
2022-12-19T10:59:37.100Z,20.93
2022-12-19T11:02:45.646Z,20.23
2022-12-19T11:05:58.002Z,20.37
2022-12-19T11:09:22.988Z,19.57
2022-12-19T11:16:04.344Z,19.07
2022-12-19T11:22:04.822Z,19.67
2022-12-19T11:29:17.531Z,18.23
2022-12-19T11:29:31.089Z,18.17
2022-12-19T11:30:21.353Z,19.37
2022-12-19T11:33:48.616Z,18.37
2022-12-19T11:36:59.593Z,18.33
2022-12-19T11:40:11.934Z,17.77
2022-12-19T11:43:45.127Z,19.03
2022-12-19T11:47:00.005Z,18.80
2022-12-19T11:50:15.864Z,17.53
2022-12-19T11:53:29.241Z,17.57
2022-12-19T11:56:33.841Z,17.40
2022-12-19T11:59:40.965Z,17.33
2022-12-19T12:03:19.931Z,17.40
2022-12-19T12:06:31.433Z,17.20
2022-12-19T12:11:58.586Z,18.17
2022-12-19T12:24:05.063Z,19.57
2022-12-19T12:29:04.078Z,18.27
2022-12-19T12:31:11.037Z,16.30
2022-12-19T12:32:02.056Z,16.83
2022-12-19T12:32:04.831Z,17.53
2022-12-19T12:35:54.025Z,17.23
2022-12-19T12:39:18.193Z,16.83
2022-12-19T12:42:49.772Z,18.63
2022-12-19T12:45:53.872Z,16.40
2022-12-19T12:49:03.584Z,17.60
2022-12-19T12:52:15.549Z,17.03
2022-12-19T12:55:29.935Z,18.07
2022-12-19T12:59:07.290Z,16.60
2022-12-19T13:02:22.220Z,17.63
2022-12-19T13:05:54.576Z,17.13
2022-12-19T13:09:06.915Z,17.40
2022-12-19T13:12:40.131Z,17.87
2022-12-19T13:15:45.837Z,17.57
2022-12-19T13:19:20.967Z,17.23
2022-12-19T13:22:42.890Z,18.43
2022-12-19T13:25:54.684Z,18.47
2022-12-19T13:29:28.964Z,16.93
2022-12-19T13:33:17.014Z,16.93
2022-12-19T13:39:54.401Z,17.23
2022-12-19T13:41:23.126Z,17.60
2022-12-19T13:44:27.187Z,16.77
2022-12-19T13:47:36.669Z,16.43
2022-12-19T13:50:42.989Z,17.20
2022-12-19T13:53:46.878Z,17.23
2022-12-19T13:56:53.181Z,18.30
2022-12-19T14:00:03.946Z,16.87
2022-12-19T14:03:18.500Z,17.80
2022-12-19T14:06:26.353Z,18.33
2022-12-19T14:11:28.109Z,18.47
2022-12-19T14:13:57.122Z,18.97
2022-12-19T14:16:48.281Z,18.17
2022-12-19T14:19:55.095Z,19.23
2022-12-19T14:23:25.529Z,19.63
2022-12-19T14:28:20.448Z,20.23
2022-12-19T14:30:28.859Z,19.40
2022-12-19T14:33:58.500Z,18.13
2022-12-19T14:37:05.539Z,19.13
2022-12-19T14:40:23.570Z,19.73
2022-12-19T14:43:56.293Z,19.80
2022-12-19T14:54:08.628Z,21.00
2022-12-19T14:54:26.177Z,18.97
2022-12-19T14:58:51.320Z,19.40
2022-12-19T15:01:25.085Z,18.90
2022-12-19T15:04:50.295Z,18.20
2022-12-19T15:08:01.367Z,19.80
2022-12-19T15:11:41.407Z,18.67
2022-12-19T15:14:58.980Z,19.97
2022-12-19T15:18:19.926Z,18.60
2022-12-19T15:21:25.653Z,17.03
2022-12-19T15:24:30.300Z,18.80
2022-12-19T15:27:35.208Z,18.73
2022-12-19T15:30:42.298Z,18.53
2022-12-19T15:34:07.206Z,17.57
2022-12-19T15:37:15.324Z,18.17
2022-12-19T15:40:19.989Z,16.93
2022-12-19T15:44:01.703Z,17.43
2022-12-19T15:46:50.479Z,16.43
2022-12-19T15:49:54.186Z,17.50
2022-12-19T15:53:02.364Z,16.23
2022-12-19T15:56:16.083Z,16.13
2022-12-19T15:59:36.387Z,15.53
2022-12-19T16:03:23.399Z,15.80
2022-12-19T16:06:06.999Z,14.60
2022-12-19T16:09:23.754Z,15.10
2022-12-19T16:12:39.471Z,14.77
2022-12-19T16:15:43.441Z,15.90
2022-12-19T16:18:47.705Z,15.00
2022-12-19T16:21:51.924Z,15.17
2022-12-19T16:24:57.397Z,15.63
2022-12-19T16:28:03.227Z,16.57
2022-12-19T16:31:17.740Z,15.03
2022-12-19T16:34:25.309Z,15.67
2022-12-19T16:37:32.348Z,15.03
2022-12-19T16:40:37.987Z,16.13
2022-12-19T16:43:45.037Z,16.20
2022-12-19T16:46:51.336Z,15.47
2022-12-19T16:49:55.374Z,15.40
2022-12-19T16:52:59.665Z,14.53
2022-12-19T16:56:06.489Z,16.60
2022-12-19T16:59:19.014Z,15.37
2022-12-19T17:02:43.445Z,15.63
2022-12-19T17:05:47.391Z,14.73
2022-12-19T17:08:51.335Z,15.43
2022-12-19T17:12:00.794Z,16.30
2022-12-19T17:15:07.861Z,16.93
2022-12-19T17:18:17.496Z,16.20
2022-12-19T17:21:23.994Z,15.63
2022-12-19T17:24:27.745Z,15.07
2022-12-19T17:27:33.528Z,16.07
2022-12-19T17:30:38.911Z,16.07
2022-12-19T17:33:43.277Z,15.40
2022-12-19T17:36:47.426Z,15.30
2022-12-19T17:39:51.244Z,15.30
2022-12-19T17:42:57.510Z,16.30
2022-12-19T17:46:01.410Z,14.73
2022-12-19T17:49:05.647Z,14.10
2022-12-19T17:52:16.192Z,15.17
2022-12-19T17:55:24.079Z,15.00
2022-12-19T17:58:29.912Z,14.10
2022-12-19T18:01:36.619Z,14.53
2022-12-19T18:04:40.325Z,15.10
2022-12-19T18:07:44.051Z,15.53
2022-12-19T18:10:47.641Z,15.33
2022-12-19T18:13:54.582Z,14.70
2022-12-19T18:16:58.602Z,14.50
2022-12-19T18:20:03.460Z,14.87
2022-12-19T18:23:17.911Z,13.83
2022-12-19T18:26:21.867Z,14.13
2022-12-19T18:29:26.871Z,14.13
2022-12-19T18:32:30.847Z,14.00
2022-12-19T18:35:38.365Z,13.47
2022-12-19T18:38:42.078Z,14.20
2022-12-19T18:41:45.772Z,13.53
2022-12-19T18:44:51.097Z,12.70
2022-12-19T18:47:59.911Z,13.67
2022-12-19T18:51:05.332Z,13.23
2022-12-19T18:54:15.209Z,12.83
2022-12-19T18:57:19.573Z,12.93
2022-12-19T19:00:28.004Z,11.93
2022-12-19T19:03:36.118Z,11.63
2022-12-19T19:06:46.434Z,12.03
2022-12-19T19:09:54.055Z,11.53
2022-12-19T19:13:02.673Z,11.43
2022-12-19T19:16:20.003Z,10.97
2022-12-19T19:19:23.895Z,11.73
2022-12-19T19:22:28.232Z,10.33
2022-12-19T19:25:32.130Z,10.97
2022-12-19T19:28:38.495Z,10.13
2022-12-19T19:31:48.586Z,10.10
2022-12-19T19:34:55.685Z,10.90
2022-12-19T19:38:07.535Z,10.47
2022-12-19T19:41:11.245Z,10.10
2022-12-19T19:44:14.981Z,9.70
2022-12-19T19:47:27.141Z,10.20
2022-12-19T19:50:31.625Z,10.20
2022-12-19T19:53:36.130Z,10.87
2022-12-19T19:56:40.151Z,9.90
2022-12-19T19:59:43.693Z,10.23
2022-12-19T20:02:49.597Z,10.03
2022-12-19T20:06:00.915Z,9.80
2022-12-19T20:09:05.196Z,10.27
2022-12-19T20:12:08.946Z,10.07
2022-12-19T20:15:13.183Z,9.03
2022-12-19T20:18:18.482Z,9.00
2022-12-19T20:21:23.976Z,9.93
2022-12-19T20:24:28.193Z,9.77
2022-12-19T20:27:31.859Z,9.00
2022-12-19T20:30:35.540Z,9.57
2022-12-19T20:33:41.123Z,9.17
2022-12-19T20:36:44.805Z,9.00
2022-12-19T20:39:48.548Z,9.30
2022-12-19T20:42:52.159Z,8.77
2022-12-19T20:46:03.116Z,8.70
2022-12-19T20:49:08.280Z,7.97
2022-12-19T20:52:11.985Z,8.07
2022-12-19T20:55:16.000Z,8.20
2022-12-19T20:58:19.716Z,8.20
2022-12-19T21:01:26.049Z,8.50
2022-12-19T21:04:31.997Z,8.07
2022-12-19T21:07:35.757Z,8.03
2022-12-19T21:10:39.449Z,7.93
2022-12-19T21:13:44.838Z,7.87
2022-12-19T21:16:48.471Z,7.97
2022-12-19T21:19:53.582Z,8.43
2022-12-19T21:22:57.316Z,7.97
2022-12-19T21:26:04.246Z,8.90
2022-12-19T21:29:07.930Z,7.60
2022-12-19T21:32:18.453Z,8.27
2022-12-19T21:35:24.398Z,8.37
2022-12-19T21:38:28.688Z,7.83
2022-12-19T21:41:33.564Z,7.93
2022-12-19T21:44:37.515Z,7.67
2022-12-19T21:47:42.222Z,7.37
2022-12-19T21:50:47.480Z,7.80
2022-12-19T21:53:56.011Z,7.07
2022-12-19T21:56:59.631Z,7.40
2022-12-19T22:00:05.840Z,7.33
2022-12-19T22:03:14.787Z,7.00
2022-12-19T22:06:28.282Z,7.27
2022-12-19T22:09:33.199Z,7.53
2022-12-19T22:12:36.907Z,7.20
2022-12-19T22:15:40.484Z,7.13
2022-12-19T22:18:44.764Z,7.37
2022-12-19T22:21:50.146Z,6.43
2022-12-19T22:24:53.809Z,7.03
2022-12-19T22:27:57.576Z,7.20
2022-12-19T22:31:01.765Z,6.63
2022-12-19T22:34:08.091Z,7.33
2022-12-19T22:37:13.378Z,6.57
2022-12-19T22:40:17.283Z,6.40
2022-12-19T22:43:20.948Z,6.67
2022-12-19T22:46:27.737Z,5.93
2022-12-19T22:49:31.504Z,6.40
2022-12-19T22:52:37.684Z,6.97
2022-12-19T22:55:41.441Z,7.20
2022-12-19T22:58:47.999Z,6.00
2022-12-19T23:01:51.871Z,6.90
2022-12-19T23:04:55.660Z,6.80
2022-12-19T23:08:00.768Z,6.20
2022-12-19T23:11:11.005Z,6.37
2022-12-19T23:14:17.603Z,6.53
2022-12-19T23:17:21.260Z,6.70
2022-12-19T23:20:24.892Z,6.53
2022-12-19T23:23:29.878Z,6.40
2022-12-19T23:26:38.402Z,5.97
2022-12-19T23:29:41.995Z,5.97
2022-12-19T23:32:50.733Z,6.33
2022-12-19T23:35:54.870Z,6.40
2022-12-19T23:38:59.940Z,6.87
2022-12-19T23:42:03.602Z,6.23
2022-12-19T23:45:09.018Z,5.87
2022-12-19T23:48:12.605Z,5.70
2022-12-19T23:51:19.644Z,6.23
2022-12-19T23:54:24.590Z,6.07
2022-12-19T23:57:28.199Z,6.23
